Time;durP1;ratioP1;P1;durP2;ratioP2;P2;SDS_P1;SDS_P2;PMS_P1;PMS_P2;Temp;Humidity;BMP_temperature;BMP_pressure;BME280_temperature;BME280_humidity;BME280_pressure;Samples;Min_cycle;Max_cycle;Signal;HPM_P1;HPM_P2
2021/03/30 00:20:15;;;;;;;18.58;6.85;;;9.00;65.10;;;;;;5030929;22;20445;-96
2021/03/30 00:22:42;;;;;;;14.27;6.53;;;9.00;65.40;;;;;;5025663;28;20557;-96
2021/03/30 00:25:33;;;;;;;18.08;6.65;;;9.10;65.00;;;;;;5025372;28;20494;-95
2021/03/30 00:28:01;;;;;;;16.52;6.82;;;9.20;64.10;;;;;;5027587;28;20477;-96
2021/03/30 00:33:19;;;;;;;13.77;6.75;;;9.30;63.90;;;;;;5045691;22;20485;-96
2021/03/30 00:35:52;;;;;;;14.47;7.17;;;9.30;64.30;;;;;;5022339;28;20419;-96
2021/03/30 00:38:41;;;;;;;14.88;7.22;;;9.40;64.20;;;;;;5024514;28;20419;-96
2021/03/30 00:41:15;;;;;;;16.23;7.40;;;9.50;63.70;;;;;;5026087;28;20423;-96
2021/03/30 00:43:50;;;;;;;17.77;7.10;;;9.80;63.70;;;;;;5007879;28;20793;-95
2021/03/30 00:46:26;;;;;;;16.77;6.90;;;9.50;63.50;;;;;;5026551;28;20423;-96
2021/03/30 00:48:56;;;;;;;15.65;7.65;;;9.60;63.80;;;;;;5025493;28;20419;-96
2021/03/30 00:51:28;;;;;;;16.50;7.03;;;9.60;63.40;;;;;;5023755;28;20921;-95
2021/03/30 00:54:00;;;;;;;18.92;7.38;;;9.40;63.50;;;;;;5007082;28;20498;-96
2021/03/30 00:57:15;;;;;;;13.80;7.00;;;9.60;63.60;;;;;;5049158;28;20426;-94
2021/03/30 01:01:13;;;;;;;15.75;7.28;;;9.50;63.90;;;;;;4988750;28;20507;-93
2021/03/30 01:08:50;;;;;;;15.82;6.93;;;9.30;63.80;;;;;;4981365;28;20415;-93
2021/03/30 04:18:11;;;;;;;17.25;8.48;;;5.60;87.00;;;;;;4196174;22;20695;-96
2021/03/30 04:21:47;;;;;;;19.00;8.70;;;5.60;86.60;;;;;;4943937;29;20448;-95
2021/03/30 04:25:03;;;;;;;16.48;9.55;;;5.70;85.80;;;;;;4891133;29;20441;-95
2021/03/30 04:27:59;;;;;;;17.42;9.23;;;6.00;86.50;;;;;;5035621;23;20424;-96
2021/03/30 05:11:39;;;;;;;50.47;24.85;;;6.20;88.00;;;;;;5132794;22;20510;-95
2021/03/30 05:49:43;;;;;;;16.65;8.63;;;8.30;75.50;;;;;;4980136;28;20987;-96
2021/03/30 05:52:29;;;;;;;19.05;9.05;;;8.30;73.60;;;;;;4963044;28;20459;-96
2021/03/30 05:54:57;;;;;;;16.92;9.20;;;8.60;73.40;;;;;;4962560;28;20432;-96
2021/03/30 05:57:28;;;;;;;21.00;8.73;;;8.80;71.90;;;;;;4964034;28;20487;-96
2021/03/30 05:59:59;;;;;;;20.52;8.60;;;8.90;71.40;;;;;;4967423;28;20454;-96
2021/03/30 06:02:49;;;;;;;16.65;9.00;;;9.20;70.80;;;;;;4970753;28;20776;-96
2021/03/30 06:05:54;;;;;;;16.98;9.07;;;9.10;71.70;;;;;;4959770;28;20492;-94
2021/03/30 06:08:51;;;;;;;17.92;9.32;;;9.10;73.00;;;;;;4960654;28;20462;-96
2021/03/30 06:11:37;;;;;;;20.77;9.35;;;9.20;76.00;;;;;;4988348;28;20436;-95
2021/03/30 06:14:58;;;;;;;16.08;8.82;;;9.10;74.90;;;;;;4960987;29;20490;-94
2021/03/30 06:18:46;;;;;;;17.55;9.48;;;8.90;76.40;;;;;;4869648;29;20473;-96
2021/03/30 06:22:19;;;;;;;17.63;9.25;;;9.30;76.10;;;;;;4945909;28;20423;-94
2021/03/30 07:12:32;;;;;;;12.80;7.30;;;22.10;32.90;;;;;;5112945;22;20478;-92
2021/03/30 07:16:39;;;;;;;13.95;7.65;;;22.40;32.20;;;;;;5053075;28;20503;-92
2021/03/30 08:13:58;;;;;;;14.95;7.95;;;19.20;41.20;;;;;;5054326;22;20461;-94
2021/03/30 08:16:25;;;;;;;16.77;7.75;;;19.70;40.70;;;;;;5017770;28;20494;-89
2021/03/30 08:18:53;;;;;;;18.63;8.17;;;19.60;39.70;;;;;;5017286;28;20419;-91
2021/03/30 08:21:21;;;;;;;16.48;7.75;;;20.00;38.20;;;;;;5017641;28;20766;-92
2021/03/30 08:23:52;;;;;;;15.57;7.40;;;20.40;39.20;;;;;;5018210;28;20728;-91
2021/03/30 08:26:27;;;;;;;13.68;7.13;;;20.30;38.80;;;;;;5017544;28;20434;-91
2021/03/30 08:29:07;;;;;;;11.15;7.25;;;20.60;38.20;;;;;;5017376;28;20443;-90
2021/03/30 08:31:46;;;;;;;12.20;7.53;;;20.30;38.80;;;;;;5018070;28;20427;-90
2021/03/30 08:34:17;;;;;;;18.15;7.72;;;19.70;40.30;;;;;;5017852;28;20437;-91
2021/03/30 08:36:43;;;;;;;13.18;7.15;;;20.10;39.70;;;;;;5017779;28;20427;-91
2021/03/30 08:39:19;;;;;;;12.77;7.53;;;20.40;37.20;;;;;;5017506;28;20427;-91
2021/03/30 08:41:46;;;;;;;13.77;8.00;;;20.60;37.60;;;;;;5017203;28;20430;-93
2021/03/30 08:44:28;;;;;;;17.35;7.93;;;21.10;37.00;;;;;;5017369;28;20415;-92
2021/03/30 09:54:49;;;;;;;15.43;7.90;;;18.20;43.30;;;;;;5557590;22;20383;-96
2021/03/30 11:48:15;;;;;;;16.23;7.80;;;19.70;43.20;;;;;;5365309;23;20415;-95
2021/03/30 11:51:03;;;;;;;15.75;8.27;;;20.30;43.40;;;;;;5027231;28;20436;-94
2021/03/30 11:53:46;;;;;;;16.63;8.27;;;20.10;41.60;;;;;;5025520;28;20442;-95
2021/03/30 12:10:36;;;;;;;13.20;7.03;;;20.30;40.20;;;;;;4926686;29;20481;-96
2021/03/30 12:14:22;;;;;;;15.80;7.70;;;20.60;39.40;;;;;;4884666;28;20435;-96
2021/03/30 12:59:54;;;;;;;11.80;6.40;;;22.10;36.00;;;;;;6099176;23;20685;-95
2021/03/30 13:36:18;;;;;;;11.38;6.68;;;24.00;34.40;;;;;;6107678;22;21410;-96
2021/03/30 14:08:34;;;;;;;17.48;7.72;;;23.20;34.80;;;;;;4965172;23;20398;-95
2021/03/30 14:11:01;;;;;;;15.07;7.50;;;23.40;34.60;;;;;;5029614;28;20426;-94
2021/03/30 14:32:14;;;;;;;14.48;7.80;;;23.70;33.70;;;;;;4968659;28;20430;-92
2021/03/30 14:41:34;;;;;;;14.38;8.13;;;22.40;36.30;;;;;;5855746;23;20427;-95
2021/03/30 15:12:54;;;;;;;16.27;8.57;;;22.20;35.80;;;;;;5302122;22;20438;-95
2021/03/30 15:15:28;;;;;;;19.13;7.90;;;22.30;35.70;;;;;;5024953;28;20494;-96
2021/03/30 15:17:56;;;;;;;18.40;8.10;;;21.90;35.00;;;;;;5031235;28;20410;-92
2021/03/30 15:20:39;;;;;;;22.60;8.53;;;21.70;35.10;;;;;;5049052;28;20422;-94
2021/03/30 15:23:30;;;;;;;14.68;7.88;;;22.00;35.20;;;;;;5031216;28;20419;-95
2021/03/30 15:34:04;;;;;;;18.35;7.72;;;21.70;36.20;;;;;;4988169;28;20463;-96
2021/03/30 15:40:35;;;;;;;13.07;7.05;;;22.40;34.50;;;;;;5049299;28;20431;-96
2021/03/30 15:49:41;;;;;;;17.05;7.60;;;21.90;34.90;;;;;;4990031;28;20459;-96
2021/03/30 15:53:03;;;;;;;14.43;7.60;;;21.70;35.30;;;;;;4990208;28;20468;-96
2021/03/30 16:04:48;;;;;;;13.40;7.40;;;21.50;35.50;;;;;;4951103;28;20448;-92
2021/03/30 16:07:58;;;;;;;13.27;6.93;;;21.80;35.70;;;;;;4939683;29;20470;-93
2021/03/30 16:11:04;;;;;;;18.25;7.80;;;21.60;34.40;;;;;;4947916;29;20419;-92
2021/03/30 16:14:32;;;;;;;12.57;7.00;;;21.10;35.20;;;;;;4919252;29;20442;-93
2021/03/30 16:17:51;;;;;;;17.52;6.72;;;21.00;36.20;;;;;;4887809;29;20403;-92
2021/03/30 16:20:54;;;;;;;14.77;7.00;;;21.10;37.00;;;;;;4834003;29;20440;-93
2021/03/30 16:23:58;;;;;;;13.50;7.20;;;20.70;35.90;;;;;;4867785;29;20527;-88
2021/03/30 16:26:25;;;;;;;11.83;6.73;;;20.70;36.70;;;;;;4868650;29;20439;-88
2021/03/30 16:28:53;;;;;;;13.98;6.10;;;20.90;36.70;;;;;;4865518;29;20935;-92
2021/03/30 16:31:34;;;;;;;13.50;6.50;;;21.10;36.30;;;;;;4872213;29;20945;-91
2021/03/30 16:34:07;;;;;;;15.67;6.63;;;21.00;36.90;;;;;;4881400;29;20458;-92
2021/03/30 16:36:55;;;;;;;14.23;6.60;;;21.00;37.70;;;;;;5233415;23;20427;-91
2021/03/30 16:39:26;;;;;;;14.82;6.38;;;21.00;36.70;;;;;;5033117;28;20415;-91
2021/03/30 16:41:55;;;;;;;11.32;6.65;;;21.00;36.70;;;;;;5027749;28;20453;-90
2021/03/30 16:44:41;;;;;;;12.43;6.18;;;20.90;36.90;;;;;;5047511;28;20494;-90
2021/03/30 16:47:36;;;;;;;13.98;6.60;;;20.80;37.10;;;;;;5038766;28;20494;-89
2021/03/30 16:50:34;;;;;;;16.27;6.60;;;20.60;38.40;;;;;;5026865;28;20502;-91
2021/03/30 16:53:19;;;;;;;12.23;6.28;;;20.40;38.30;;;;;;4997801;28;20441;-96
2021/03/30 16:58:24;;;;;;;11.93;6.38;;;20.10;39.00;;;;;;5345706;22;20442;-85
2021/03/30 17:00:51;;;;;;;16.83;6.85;;;19.90;39.70;;;;;;5039687;28;20419;-90
2021/03/30 17:03:21;;;;;;;11.77;6.25;;;19.80;40.00;;;;;;5023432;28;20426;-91
2021/03/30 17:06:36;;;;;;;12.05;6.13;;;19.60;39.70;;;;;;5031503;28;20478;-94
2021/03/30 17:25:47;;;;;;;14.80;5.75;;;16.30;53.00;;;;;;5011419;28;20402;-91
2021/03/30 17:28:43;;;;;;;20.23;7.05;;;15.60;54.70;;;;;;5002697;22;20431;-94
2021/03/30 17:31:10;;;;;;;18.33;7.32;;;15.00;55.90;;;;;;5017033;28;20458;-95
2021/03/30 17:33:37;;;;;;;16.48;7.18;;;14.40;58.10;;;;;;5019144;28;20930;-92
